Time;durP1;ratioP1;P1;durP2;ratioP2;P2;SDS_P1;SDS_P2;PMS_P1;PMS_P2;Temp;Humidity;BMP_temperature;BMP_pressure;BME280_temperature;BME280_humidity;BME280_pressure;Samples;Min_cycle;Max_cycle;Signal;HPM_P1;HPM_P2
2021/04/28 00:00:10;;;;;;;28.53;24.37;;;13.40;93.80;;;;;;5042680;28;20608;-77
2021/04/28 00:02:38;;;;;;;29.20;24.07;;;13.40;93.80;;;;;;5042499;28;20219;-78
2021/04/28 00:05:08;;;;;;;29.60;25.30;;;13.40;93.80;;;;;;5041432;28;20214;-79
2021/04/28 00:07:36;;;;;;;31.23;25.90;;;13.40;93.90;;;;;;5040800;28;20238;-78
2021/04/28 00:10:10;;;;;;;34.73;26.23;;;13.40;93.90;;;;;;5041205;28;20273;-78
2021/04/28 00:12:38;;;;;;;31.63;25.30;;;13.40;93.80;;;;;;5042268;28;20513;-78
2021/04/28 00:15:14;;;;;;;33.40;26.13;;;13.40;93.80;;;;;;5041404;28;20298;-78
2021/04/28 00:17:41;;;;;;;29.30;25.93;;;13.40;93.90;;;;;;5041283;28;20647;-78
2021/04/28 00:20:13;;;;;;;34.00;26.40;;;13.40;93.90;;;;;;5041616;28;20241;-78
2021/04/28 00:22:40;;;;;;;28.63;25.53;;;13.40;94.00;;;;;;5047132;28;20195;-79
2021/04/28 00:25:10;;;;;;;33.23;26.50;;;13.40;94.00;;;;;;5043947;28;20216;-78
2021/04/28 00:27:37;;;;;;;31.17;26.77;;;13.40;94.00;;;;;;5039842;28;20207;-78
2021/04/28 00:30:07;;;;;;;30.80;26.40;;;13.40;94.00;;;;;;5041047;28;20234;-78
2021/04/28 00:32:37;;;;;;;32.13;28.23;;;13.40;94.00;;;;;;5039788;28;20231;-78
2021/04/28 00:35:07;;;;;;;32.03;25.83;;;13.40;94.00;;;;;;5040203;28;20239;-78
2021/04/28 00:37:33;;;;;;;34.77;26.03;;;13.50;94.00;;;;;;5039781;28;20203;-78
2021/04/28 00:40:01;;;;;;;32.20;27.47;;;13.40;93.90;;;;;;5041085;28;20214;-78
2021/04/28 00:42:27;;;;;;;33.60;27.70;;;13.40;93.90;;;;;;5024076;28;20610;-78
2021/04/28 00:44:54;;;;;;;31.10;26.40;;;13.40;93.90;;;;;;5039964;28;20270;-78
2021/04/28 00:47:22;;;;;;;33.57;27.50;;;13.40;93.90;;;;;;5040947;28;20623;-78
2021/04/28 00:49:49;;;;;;;28.20;25.13;;;13.40;93.90;;;;;;5040173;28;20226;-78
2021/04/28 00:52:15;;;;;;;29.53;26.27;;;13.40;93.90;;;;;;5039815;28;20207;-78
2021/04/28 00:54:43;;;;;;;30.93;25.53;;;13.40;93.80;;;;;;5039095;28;20207;-78
2021/04/28 00:57:10;;;;;;;27.67;23.77;;;13.40;93.80;;;;;;5039197;28;20215;-78
2021/04/28 00:59:37;;;;;;;29.03;23.37;;;13.40;93.80;;;;;;5044612;28;20602;-78
2021/04/28 01:02:03;;;;;;;24.53;21.07;;;13.40;93.80;;;;;;5042030;28;20210;-79
2021/04/28 01:04:30;;;;;;;23.20;20.47;;;13.40;93.80;;;;;;5043277;28;20203;-78
2021/04/28 01:06:58;;;;;;;23.87;21.37;;;13.30;93.70;;;;;;5058398;28;20246;-78
2021/04/28 01:09:26;;;;;;;26.13;19.27;;;13.40;93.70;;;;;;5058739;28;20202;-78
2021/04/28 01:11:55;;;;;;;23.23;18.70;;;13.40;93.60;;;;;;5059135;28;20210;-79
2021/04/28 01:14:22;;;;;;;23.13;18.67;;;13.40;93.40;;;;;;5045312;28;20222;-79
2021/04/28 01:16:49;;;;;;;20.40;18.27;;;13.40;93.30;;;;;;5039273;28;20223;-78
2021/04/28 01:19:18;;;;;;;21.27;17.77;;;13.40;93.20;;;;;;5038326;28;20237;-79
2021/04/28 01:21:45;;;;;;;21.53;17.67;;;13.30;93.10;;;;;;5042538;28;20650;-79
2021/04/28 01:24:12;;;;;;;18.60;16.63;;;13.30;93.00;;;;;;5057322;28;20214;-78
2021/04/28 01:26:40;;;;;;;19.20;15.40;;;13.30;93.00;;;;;;5057804;28;20661;-79
2021/04/28 01:29:07;;;;;;;17.80;15.90;;;13.30;92.90;;;;;;5057697;28;20218;-78
2021/04/28 01:31:34;;;;;;;21.87;16.57;;;13.30;92.90;;;;;;5056901;28;20245;-79
2021/04/28 01:34:05;;;;;;;19.77;16.87;;;13.30;92.80;;;;;;5054631;28;20227;-79
2021/04/28 01:36:38;;;;;;;17.90;15.93;;;13.30;92.80;;;;;;5037142;28;20207;-78
2021/04/28 01:39:15;;;;;;;17.27;14.97;;;13.30;92.80;;;;;;5041447;28;20198;-79
2021/04/28 01:41:44;;;;;;;15.50;13.80;;;13.20;92.70;;;;;;5040496;28;20215;-78
2021/04/28 01:44:15;;;;;;;14.90;13.40;;;13.20;92.60;;;;;;5052456;28;20244;-79
2021/04/28 01:46:44;;;;;;;13.87;12.37;;;13.20;92.60;;;;;;5026878;28;20225;-79
2021/04/28 01:49:12;;;;;;;15.70;12.90;;;13.20;92.50;;;;;;5061235;28;20281;-79
2021/04/28 01:51:41;;;;;;;15.43;13.13;;;13.20;92.50;;;;;;5057858;28;20663;-79
2021/04/28 01:54:13;;;;;;;15.80;12.90;;;13.10;92.50;;;;;;5039488;28;20623;-78
2021/04/28 01:56:42;;;;;;;13.67;12.27;;;13.10;92.50;;;;;;5041573;28;20619;-78
2021/04/28 01:59:09;;;;;;;15.63;12.23;;;13.10;92.40;;;;;;5041384;28;20551;-79
2021/04/28 02:01:37;;;;;;;12.93;11.63;;;13.10;92.40;;;;;;5041026;28;20219;-80
2021/04/28 02:04:05;;;;;;;16.23;11.63;;;13.10;92.20;;;;;;5041110;28;20211;-79
2021/04/28 02:06:32;;;;;;;13.20;11.40;;;13.10;92.10;;;;;;5041273;28;20526;-79
2021/04/28 02:09:00;;;;;;;13.40;11.27;;;13.10;92.10;;;;;;5048887;28;20238;-79
2021/04/28 02:11:26;;;;;;;13.43;12.07;;;13.10;92.00;;;;;;5077909;28;20664;-79
2021/04/28 02:13:53;;;;;;;15.17;12.20;;;13.10;92.00;;;;;;5061317;28;20222;-82
2021/04/28 02:16:20;;;;;;;15.83;13.10;;;13.10;92.00;;;;;;5061303;28;20221;-79
2021/04/28 02:18:48;;;;;;;14.27;12.77;;;13.10;92.10;;;;;;5060891;28;20261;-79
2021/04/28 02:21:15;;;;;;;16.37;13.70;;;13.00;92.10;;;;;;5060960;28;20225;-79
2021/04/28 02:23:42;;;;;;;15.67;13.70;;;13.00;92.10;;;;;;5059915;28;20222;-79
2021/04/28 02:26:10;;;;;;;15.77;13.77;;;13.00;92.20;;;;;;5060852;28;20203;-79
2021/04/28 02:28:37;;;;;;;16.67;13.60;;;13.00;92.20;;;;;;5061627;28;20219;-79
2021/04/28 02:31:04;;;;;;;15.53;13.07;;;13.00;92.20;;;;;;5044820;28;20231;-79
2021/04/28 02:33:35;;;;;;;14.13;12.63;;;13.00;92.20;;;;;;5037408;28;20240;-79
2021/04/28 02:36:03;;;;;;;13.40;12.20;;;13.00;92.10;;;;;;5005513;28;20196;-79
2021/04/28 02:38:44;;;;;;;13.43;11.87;;;13.00;92.10;;;;;;5022440;28;20204;-78
2021/04/28 02:41:13;;;;;;;14.67;12.50;;;13.00;92.00;;;;;;5005509;28;20220;-79
2021/04/28 02:43:41;;;;;;;14.77;12.70;;;13.00;92.00;;;;;;5005742;28;20200;-79
2021/04/28 02:46:11;;;;;;;15.40;13.73;;;13.00;92.00;;;;;;5014903;28;20218;-79
2021/04/28 02:48:40;;;;;;;16.60;14.63;;;13.00;92.00;;;;;;5021959;28;20649;-79
2021/04/28 02:51:07;;;;;;;14.33;12.83;;;12.90;91.90;;;;;;5021707;28;20582;-79
2021/04/28 02:53:35;;;;;;;14.60;13.20;;;12.90;91.90;;;;;;5005297;28;20310;-79
2021/04/28 02:56:03;;;;;;;13.97;12.20;;;12.90;91.90;;;;;;5005155;28;20220;-79
2021/04/28 02:58:32;;;;;;;13.93;12.43;;;12.90;91.80;;;;;;5021467;28;20275;-79
2021/04/28 03:01:03;;;;;;;13.97;12.10;;;12.90;91.70;;;;;;5021784;28;20696;-79
2021/04/28 03:03:31;;;;;;;13.53;12.23;;;12.90;91.70;;;;;;5004918;28;20219;-79
2021/04/28 03:05:58;;;;;;;14.33;12.87;;;12.90;91.70;;;;;;5005184;28;20215;-79
2021/04/28 03:08:26;;;;;;;12.50;11.20;;;12.80;91.70;;;;;;5022762;28;20207;-79
2021/04/28 03:10:53;;;;;;;14.17;12.77;;;12.80;91.60;;;;;;5022348;28;20589;-79
2021/04/28 03:13:29;;;;;;;13.07;11.67;;;12.80;91.60;;;;;;5026108;28;20531;-78
2021/04/28 03:15:56;;;;;;;12.90;11.70;;;12.80;91.40;;;;;;5022013;28;20212;-79
2021/04/28 03:18:23;;;;;;;13.77;12.40;;;12.70;91.30;;;;;;5022527;28;20208;-78
2021/04/28 03:20:53;;;;;;;14.07;11.57;;;12.70;91.20;;;;;;5005990;28;20222;-79
2021/04/28 03:23:21;;;;;;;12.80;11.50;;;12.70;91.10;;;;;;5004804;28;20323;-79
2021/04/28 03:26:00;;;;;;;12.83;11.47;;;12.70;91.20;;;;;;5004603;28;20211;-79
2021/04/28 03:28:30;;;;;;;13.40;12.10;;;12.70;91.20;;;;;;5004829;28;20211;-79
2021/04/28 03:30:57;;;;;;;12.83;11.47;;;12.70;91.30;;;;;;5005040;28;20302;-79
2021/04/28 03:33:24;;;;;;;12.80;11.50;;;12.70;91.30;;;;;;5024802;28;21053;-78
2021/04/28 03:35:51;;;;;;;13.13;11.57;;;12.70;91.30;;;;;;5041857;28;20196;-78
2021/04/28 03:38:18;;;;;;;15.90;10.40;;;12.70;91.30;;;;;;5040394;28;20211;-78
2021/04/28 03:40:45;;;;;;;12.83;11.50;;;12.60;91.30;;;;;;5040324;28;20275;-79
2021/04/28 03:43:13;;;;;;;12.13;10.90;;;12.60;91.10;;;;;;5040978;28;20219;-79
2021/04/28 03:45:39;;;;;;;14.40;11.00;;;12.70;91.10;;;;;;5040275;28;20653;-79
2021/04/28 03:48:06;;;;;;;13.67;12.30;;;12.60;91.20;;;;;;5056791;28;20215;-79
2021/04/28 03:50:34;;;;;;;13.53;11.37;;;12.60;91.20;;;;;;5039928;28;20296;-79
2021/04/28 03:53:06;;;;;;;13.33;11.10;;;12.60;91.20;;;;;;5040584;28;20594;-79
2021/04/28 03:55:34;;;;;;;13.53;11.90;;;12.60;91.20;;;;;;5040965;28;20211;-79
2021/04/28 03:58:01;;;;;;;12.07;10.67;;;12.60;91.20;;;;;;5039957;28;20215;-79
2021/04/28 04:00:29;;;;;;;12.33;10.67;;;12.60;91.10;;;;;;5038582;28;20218;-79
2021/04/28 04:02:56;;;;;;;12.27;10.97;;;12.60;91.20;;;;;;5021734;28;20269;-78
2021/04/28 04:05:23;;;;;;;13.33;11.43;;;12.60;91.10;;;;;;5038221;28;20544;-77
2021/04/28 04:07:50;;;;;;;12.60;11.20;;;12.60;91.10;;;;;;5038001;28;20219;-78
2021/04/28 04:10:17;;;;;;;13.43;11.80;;;12.60;91.10;;;;;;5037594;28;20297;-79
2021/04/28 04:12:44;;;;;;;12.73;11.57;;;12.50;91.10;;;;;;5021405;28;20574;-79
2021/04/28 04:15:11;;;;;;;15.07;10.97;;;12.50;91.10;;;;;;5053452;28;20218;-79
2021/04/28 04:17:38;;;;;;;13.63;12.33;;;12.50;91.10;;;;;;5057005;28;20238;-78
2021/04/28 04:20:06;;;;;;;13.53;11.93;;;12.50;91.00;;;;;;5056437;28;20214;-79
2021/04/28 04:22:33;;;;;;;11.90;10.70;;;12.50;91.00;;;;;;5057293;28;20567;-79
2021/04/28 04:25:00;;;;;;;14.83;12.33;;;12.40;91.00;;;;;;5056573;28;20218;-77
2021/04/28 04:27:27;;;;;;;13.63;11.77;;;12.50;91.10;;;;;;5057178;28;20222;-79
2021/04/28 04:29:54;;;;;;;15.70;11.93;;;12.50;91.20;;;;;;5058078;28;20588;-79
2021/04/28 04:32:20;;;;;;;12.20;10.90;;;12.50;91.30;;;;;;5056372;28;20828;-78
2021/04/28 04:34:47;;;;;;;13.63;10.97;;;12.50;91.20;;;;;;5055825;28;20468;-78
2021/04/28 04:37:14;;;;;;;12.37;10.30;;;12.50;91.10;;;;;;5057654;28;20297;-79
2021/04/28 04:39:41;;;;;;;11.80;9.80;;;12.50;90.90;;;;;;5058629;28;20305;-79
2021/04/28 04:42:10;;;;;;;11.20;9.73;;;12.50;90.90;;;;;;5058853;28;20221;-79
2021/04/28 04:44:38;;;;;;;11.20;9.50;;;12.50;90.90;;;;;;5053235;28;20697;-79
2021/04/28 04:47:05;;;;;;;12.50;9.43;;;12.50;90.50;;;;;;5057844;28;20206;-80
2021/04/28 04:49:52;;;;;;;12.40;10.43;;;12.50;90.40;;;;;;5058648;28;20210;-79
2021/04/28 04:52:33;;;;;;;11.17;10.03;;;12.50;90.30;;;;;;5044758;28;20211;-79
2021/04/28 04:54:59;;;;;;;15.90;11.43;;;12.50;90.40;;;;;;5036812;28;20225;-79
2021/04/28 04:57:34;;;;;;;11.73;10.63;;;12.50;90.50;;;;;;5037408;28;20210;-79
2021/04/28 05:00:02;;;;;;;12.73;11.43;;;12.60;90.40;;;;;;5038606;28;20215;-79
2021/04/28 05:02:29;;;;;;;13.83;11.77;;;12.60;90.40;;;;;;5037372;28;20543;-79
2021/04/28 05:04:56;;;;;;;14.43;10.63;;;12.60;90.50;;;;;;5054807;28;20277;-79
2021/04/28 05:07:23;;;;;;;13.53;11.10;;;12.60;90.50;;;;;;5037767;28;20618;-79
2021/04/28 05:09:51;;;;;;;12.13;10.80;;;12.60;90.50;;;;;;5058061;28;20211;-79
2021/04/28 05:12:17;;;;;;;13.77;11.63;;;12.60;90.40;;;;;;5059723;28;20224;-79
2021/04/28 05:14:45;;;;;;;13.00;10.27;;;12.70;90.40;;;;;;5061658;28;20556;-79
2021/04/28 05:17:11;;;;;;;12.47;11.17;;;12.70;90.40;;;;;;5048925;28;20221;-78
2021/04/28 05:19:38;;;;;;;13.27;10.47;;;12.70;90.30;;;;;;5043230;28;20233;-79
2021/04/28 05:22:05;;;;;;;13.43;11.13;;;12.70;90.20;;;;;;5042913;28;20235;-79
2021/04/28 05:24:32;;;;;;;15.40;10.30;;;12.70;90.10;;;;;;5043669;28;20226;-78
2021/04/28 05:26:58;;;;;;;12.20;9.73;;;12.70;90.10;;;;;;5042779;28;20717;-79
2021/04/28 05:29:25;;;;;;;11.20;8.60;;;12.70;89.90;;;;;;5042021;28;20223;-79
2021/04/28 05:31:52;;;;;;;11.93;9.90;;;12.70;89.80;;;;;;5042011;28;20234;-79
2021/04/28 05:34:20;;;;;;;11.57;9.00;;;12.80;89.60;;;;;;5031057;28;20243;-79
2021/04/28 05:36:46;;;;;;;10.37;8.53;;;12.90;89.20;;;;;;5022997;28;20707;-79
2021/04/28 05:39:13;;;;;;;11.93;9.30;;;12.90;88.40;;;;;;5030340;28;20215;-80
2021/04/28 05:41:41;;;;;;;9.70;8.67;;;12.90;87.80;;;;;;5025662;28;20249;-79
2021/04/28 05:44:11;;;;;;;10.33;9.33;;;13.00;87.90;;;;;;5021490;28;20243;-80
2021/04/28 05:46:38;;;;;;;10.00;8.83;;;13.00;88.10;;;;;;5025676;28;20219;-79
2021/04/28 05:49:05;;;;;;;9.87;8.80;;;13.00;87.60;;;;;;5043257;28;20544;-79
2021/04/28 05:51:33;;;;;;;9.97;8.87;;;13.00;87.40;;;;;;5025498;28;20239;-79
2021/04/28 05:53:59;;;;;;;9.67;7.80;;;13.00;87.30;;;;;;5026514;28;20219;-79
2021/04/28 05:56:26;;;;;;;9.97;8.20;;;13.00;86.80;;;;;;5026088;28;20571;-79
2021/04/28 05:58:52;;;;;;;10.87;8.10;;;13.10;86.90;;;;;;5026303;28;20225;-79
2021/04/28 06:01:19;;;;;;;8.83;8.03;;;13.20;86.80;;;;;;5025569;28;20744;-79
2021/04/28 06:03:46;;;;;;;10.00;8.10;;;13.30;86.10;;;;;;5026920;28;20220;-79
2021/04/28 06:06:13;;;;;;;9.00;7.50;;;13.40;85.30;;;;;;5025911;28;20211;-79
2021/04/28 06:08:40;;;;;;;7.77;6.97;;;13.50;84.60;;;;;;5026289;28;20599;-79
2021/04/28 06:11:07;;;;;;;8.30;6.83;;;13.60;84.40;;;;;;5043206;28;20235;-79
2021/04/28 06:13:34;;;;;;;7.07;6.20;;;13.60;84.00;;;;;;5043502;28;20226;-79
2021/04/28 06:16:01;;;;;;;7.93;7.13;;;13.60;82.50;;;;;;5026034;28;20219;-79
2021/04/28 06:18:28;;;;;;;9.40;6.47;;;13.60;82.80;;;;;;4985715;28;20227;-79
2021/04/28 06:20:55;;;;;;;7.47;6.77;;;13.60;82.30;;;;;;5001823;28;20235;-79
2021/04/28 06:23:21;;;;;;;7.63;6.93;;;13.60;82.30;;;;;;4986131;28;20216;-79
2021/04/28 06:25:49;;;;;;;10.07;7.20;;;13.60;82.80;;;;;;4985812;28;20229;-79
2021/04/28 06:28:16;;;;;;;8.03;6.80;;;13.60;82.50;;;;;;5001784;28;20558;-79
2021/04/28 06:30:43;;;;;;;8.47;7.13;;;13.60;82.70;;;;;;4985388;28;20240;-79
2021/04/28 06:33:09;;;;;;;8.53;6.40;;;13.60;82.40;;;;;;5002986;28;20224;-79
2021/04/28 06:35:36;;;;;;;7.73;6.93;;;13.60;82.40;;;;;;5021257;28;20251;-79
2021/04/28 06:38:03;;;;;;;9.60;6.70;;;13.60;83.50;;;;;;5021091;28;20243;-79
2021/04/28 06:40:30;;;;;;;11.90;7.37;;;13.70;82.30;;;;;;5020779;28;20219;-79
2021/04/28 06:42:57;;;;;;;8.10;7.27;;;13.80;82.10;;;;;;5020786;28;20228;-79
2021/04/28 06:45:24;;;;;;;8.77;7.70;;;13.90;82.30;;;;;;5020830;28;20224;-79
2021/04/28 06:47:53;;;;;;;7.40;6.70;;;14.00;81.40;;;;;;5019918;28;20245;-79
2021/04/28 06:50:19;;;;;;;9.53;7.03;;;14.10;81.30;;;;;;5056381;28;20223;-79
2021/04/28 06:52:46;;;;;;;9.83;6.70;;;14.10;80.60;;;;;;5062143;28;20527;-79
2021/04/28 06:55:13;;;;;;;8.63;6.30;;;14.20;79.90;;;;;;5061880;28;20217;-79
2021/04/28 06:57:56;;;;;;;7.47;6.60;;;14.20;79.20;;;;;;5051255;28;20271;-79
2021/04/28 07:00:26;;;;;;;7.77;6.67;;;14.20;79.30;;;;;;5062824;28;20726;-79
2021/04/28 07:02:57;;;;;;;8.33;6.97;;;14.30;78.60;;;;;;5061765;28;20286;-79
2021/04/28 07:05:25;;;;;;;9.93;6.90;;;14.30;78.90;;;;;;5062195;28;20650;-79
2021/04/28 07:07:53;;;;;;;6.80;6.10;;;14.40;77.90;;;;;;5061869;28;20500;-78
2021/04/28 07:10:21;;;;;;;9.30;6.67;;;14.50;77.90;;;;;;5049438;28;20211;-79
2021/04/28 07:12:51;;;;;;;6.47;5.87;;;14.50;78.10;;;;;;5058472;28;20215;-79
2021/04/28 07:15:19;;;;;;;6.90;6.20;;;14.70;77.40;;;;;;5059014;28;20220;-79
2021/04/28 07:17:47;;;;;;;7.13;6.37;;;14.80;76.50;;;;;;5060823;28;20215;-79
2021/04/28 07:20:15;;;;;;;7.70;6.40;;;14.90;76.80;;;;;;5061359;28;20233;-79
2021/04/28 07:22:44;;;;;;;12.30;6.43;;;15.10;76.60;;;;;;5031854;28;20229;-79
2021/04/28 07:25:11;;;;;;;9.23;6.23;;;15.20;75.80;;;;;;5046404;28;20203;-79
2021/04/28 07:27:43;;;;;;;7.93;6.90;;;15.40;75.90;;;;;;5061728;28;20224;-79
2021/04/28 07:30:11;;;;;;;8.63;6.93;;;15.60;75.30;;;;;;5061570;28;20228;-79
2021/04/28 07:32:39;;;;;;;8.10;7.03;;;15.60;75.50;;;;;;5062296;28;20246;-79
2021/04/28 07:35:07;;;;;;;11.83;6.90;;;15.70;74.70;;;;;;5060012;28;20273;-79
2021/04/28 07:37:34;;;;;;;8.57;6.77;;;15.80;74.60;;;;;;5062241;28;20305;-79
2021/04/28 07:40:01;;;;;;;7.13;6.43;;;15.90;74.60;;;;;;5061803;28;20233;-79
2021/04/28 07:42:28;;;;;;;8.00;6.93;;;15.90;72.90;;;;;;5060035;28;20226;-79
2021/04/28 07:44:55;;;;;;;9.33;6.87;;;15.80;73.70;;;;;;5058090;28;20222;-78
2021/04/28 07:47:22;;;;;;;7.47;6.23;;;15.80;74.50;;;;;;5058515;28;20302;-78
2021/04/28 07:50:08;;;;;;;7.47;6.73;;;15.80;74.70;;;;;;5056332;28;20546;-79
2021/04/28 07:52:36;;;;;;;7.00;6.27;;;15.90;75.40;;;;;;5059838;28;20223;-79
2021/04/28 07:55:03;;;;;;;7.50;6.80;;;16.00;75.00;;;;;;5060293;28;20221;-79
2021/04/28 07:57:30;;;;;;;6.80;6.20;;;16.20;74.30;;;;;;5059652;28;20240;-79
2021/04/28 07:59:57;;;;;;;7.47;6.77;;;16.30;74.50;;;;;;5058723;28;20302;-79
2021/04/28 08:02:28;;;;;;;6.97;6.37;;;16.40;74.80;;;;;;5059074;28;20218;-79
2021/04/28 08:04:54;;;;;;;7.20;6.43;;;16.60;74.00;;;;;;5042322;28;20222;-79
2021/04/28 08:07:21;;;;;;;11.90;7.03;;;16.60;72.60;;;;;;5058437;28;20211;-79
2021/04/28 08:09:48;;;;;;;8.13;6.10;;;16.60;72.70;;;;;;5055256;28;20245;-79
2021/04/28 08:12:15;;;;;;;7.20;6.37;;;16.70;73.30;;;;;;5059104;28;20248;-79
2021/04/28 08:14:42;;;;;;;7.63;5.80;;;16.70;72.70;;;;;;5058259;28;20363;-79
2021/04/28 08:17:11;;;;;;;7.50;6.57;;;16.80;72.10;;;;;;5045206;28;20207;-79
2021/04/28 08:19:38;;;;;;;7.30;6.60;;;16.80;72.40;;;;;;5039794;28;20276;-78
2021/04/28 08:22:08;;;;;;;8.20;6.97;;;16.80;72.50;;;;;;5038068;28;20231;-78
2021/04/28 08:24:35;;;;;;;7.23;5.83;;;16.90;72.50;;;;;;5039435;28;20207;-79
2021/04/28 08:27:02;;;;;;;6.80;6.20;;;17.00;72.80;;;;;;5038914;28;20611;-79
2021/04/28 08:29:29;;;;;;;7.10;6.40;;;17.10;72.70;;;;;;5038245;28;20211;-78
2021/04/28 08:31:55;;;;;;;6.90;6.23;;;17.20;72.60;;;;;;5038708;28;20247;-80
2021/04/28 08:34:23;;;;;;;8.03;7.07;;;17.30;72.80;;;;;;5022229;28;20305;-79
2021/04/28 08:36:50;;;;;;;6.03;5.53;;;17.30;71.80;;;;;;5038593;28;20207;-81
2021/04/28 08:39:35;;;;;;;5.83;5.33;;;17.40;72.00;;;;;;5039313;28;20306;-79
2021/04/28 08:42:02;;;;;;;6.23;5.63;;;17.40;70.80;;;;;;5038089;28;20214;-79
2021/04/28 08:44:44;;;;;;;6.23;5.67;;;17.50;71.10;;;;;;5024380;28;20290;-78
2021/04/28 08:47:13;;;;;;;6.80;5.77;;;17.60;69.50;;;;;;5052595;28;20221;-79
2021/04/28 08:49:41;;;;;;;5.50;5.00;;;17.60;69.60;;;;;;5060171;28;20217;-79
2021/04/28 08:52:08;;;;;;;6.30;5.70;;;17.60;69.40;;;;;;5059018;28;20238;-79
2021/04/28 08:54:46;;;;;;;7.13;6.20;;;17.70;69.40;;;;;;5058470;28;20649;-79
2021/04/28 08:57:14;;;;;;;6.30;5.70;;;17.80;69.40;;;;;;5058197;28;20214;-79
2021/04/28 08:59:42;;;;;;;6.20;5.57;;;17.90;69.40;;;;;;5058738;28;20216;-79
2021/04/28 09:02:26;;;;;;;6.80;6.20;;;18.10;68.90;;;;;;5035690;28;20215;-80
2021/04/28 09:05:14;;;;;;;7.10;6.00;;;18.20;68.00;;;;;;5039548;28;20246;-79
2021/04/28 09:07:44;;;;;;;6.40;5.90;;;18.40;67.70;;;;;;5038759;28;20214;-79
2021/04/28 09:10:19;;;;;;;13.80;5.67;;;18.70;68.00;;;;;;5056040;28;20297;-79
2021/04/28 09:12:55;;;;;;;7.07;6.37;;;19.10;67.40;;;;;;5059297;28;20210;-80
2021/04/28 09:15:36;;;;;;;6.60;6.03;;;19.50;67.50;;;;;;5058720;28;20206;-80
2021/04/28 09:18:05;;;;;;;6.03;5.43;;;19.80;65.90;;;;;;5039160;28;20595;-80
2021/04/28 09:20:35;;;;;;;7.57;6.30;;;20.00;65.30;;;;;;5037813;28;20215;-80
2021/04/28 09:23:10;;;;;;;6.60;6.00;;;20.10;64.70;;;;;;5039290;28;20561;-80
2021/04/28 09:25:53;;;;;;;6.27;5.67;;;20.10;63.10;;;;;;5038973;28;20206;-80
2021/04/28 09:28:34;;;;;;;8.20;5.60;;;20.00;61.50;;;;;;5038685;28;20211;-80
2021/04/28 09:31:07;;;;;;;6.90;6.20;;;19.80;61.10;;;;;;5052982;28;20234;-80
2021/04/28 09:33:58;;;;;;;5.77;5.27;;;19.80;62.30;;;;;;5057392;28;20238;-81
2021/04/28 09:36:34;;;;;;;5.33;4.83;;;19.70;60.10;;;;;;5057838;28;20191;-80
2021/04/28 09:39:05;;;;;;;5.63;5.00;;;19.50;58.70;;;;;;5059616;28;20190;-80
2021/04/28 09:41:54;;;;;;;5.40;5.00;;;19.50;60.10;;;;;;5059522;28;20226;-80
2021/04/28 09:44:22;;;;;;;5.67;5.17;;;19.50;60.80;;;;;;5058926;28;20276;-80
2021/04/28 09:46:59;;;;;;;5.80;5.30;;;19.50;60.70;;;;;;5057869;28;20229;-80
2021/04/28 09:49:42;;;;;;;6.93;6.33;;;19.50;60.70;;;;;;5058285;28;20229;-80
2021/04/28 09:52:19;;;;;;;6.10;5.50;;;19.60;62.00;;;;;;5057578;28;20219;-81
2021/04/28 09:55:05;;;;;;;6.33;5.73;;;19.90;61.70;;;;;;5042496;28;20206;-81
2021/04/28 09:57:40;;;;;;;5.97;5.47;;;20.30;61.40;;;;;;5058587;28;20522;-80
2021/04/28 10:00:17;;;;;;;5.97;5.20;;;20.70;60.70;;;;;;5062107;28;20221;-80
2021/04/28 10:03:03;;;;;;;5.40;5.00;;;20.90;60.50;;;;;;5060265;28;20240;-81
2021/04/28 10:05:47;;;;;;;5.60;5.10;;;21.00;57.70;;;;;;5077124;28;20229;-81
2021/04/28 10:08:20;;;;;;;6.13;5.53;;;21.00;59.50;;;;;;5060898;28;20246;-80
2021/04/28 10:10:50;;;;;;;6.33;5.67;;;20.90;58.90;;;;;;5061298;28;20317;-80
2021/04/28 10:14:00;;;;;;;5.37;4.97;;;20.80;59.20;;;;;;5061433;28;20626;-80
2021/04/28 10:16:27;;;;;;;5.27;4.77;;;21.00;59.10;;;;;;5035362;28;20730;-80
2021/04/28 10:18:54;;;;;;;7.00;5.33;;;21.10;56.30;;;;;;5049085;28;20642;-80
2021/04/28 10:21:21;;;;;;;5.50;5.00;;;21.00;56.30;;;;;;5035462;28;20223;-81
2021/04/28 10:23:47;;;;;;;5.73;5.23;;;21.00;56.60;;;;;;5049276;28;20218;-81
2021/04/28 10:26:14;;;;;;;6.10;5.47;;;21.00;56.60;;;;;;5023359;28;20261;-80
2021/04/28 10:28:42;;;;;;;5.30;4.53;;;21.00;57.70;;;;;;5053532;28;20223;-80
2021/04/28 10:31:08;;;;;;;5.17;4.77;;;21.10;56.60;;;;;;5030143;28;20242;-81
2021/04/28 10:33:39;;;;;;;4.53;4.13;;;21.00;55.20;;;;;;5037855;28;20256;-80
2021/04/28 10:36:27;;;;;;;6.00;5.37;;;20.80;55.30;;;;;;5049168;28;20225;-81
2021/04/28 10:38:54;;;;;;;5.43;4.93;;;20.60;56.80;;;;;;5033297;28;20215;-81
2021/04/28 10:41:44;;;;;;;9.40;5.90;;;20.60;58.30;;;;;;5023955;28;20226;-80
2021/04/28 10:44:30;;;;;;;6.57;5.67;;;20.80;59.40;;;;;;5040831;28;20203;-81
2021/04/28 10:47:28;;;;;;;6.27;4.80;;;21.40;57.90;;;;;;5017942;28;20223;-81
2021/04/28 10:50:02;;;;;;;5.63;5.13;;;21.60;56.20;;;;;;5040584;28;20215;-81
2021/04/28 10:52:34;;;;;;;5.73;5.23;;;21.50;57.00;;;;;;5038880;28;20235;-81
2021/04/28 10:55:03;;;;;;;5.10;4.70;;;21.60;56.30;;;;;;5045262;28;20636;-81
2021/04/28 10:57:35;;;;;;;6.33;5.73;;;21.70;54.80;;;;;;5058291;28;20215;-81
2021/04/28 11:00:22;;;;;;;7.40;6.60;;;21.70;54.00;;;;;;5057160;28;20233;-81
2021/04/28 11:02:49;;;;;;;6.77;6.07;;;21.70;58.00;;;;;;5053839;28;20215;-82
2021/04/28 11:05:28;;;;;;;6.60;6.00;;;22.00;57.80;;;;;;5059982;28;20569;-80
2021/04/28 11:07:58;;;;;;;7.67;6.87;;;22.20;56.80;;;;;;5054026;28;20261;-80
2021/04/28 11:10:33;;;;;;;7.70;7.00;;;22.20;56.70;;;;;;5058471;28;20650;-81
2021/04/28 11:13:15;;;;;;;7.00;6.40;;;22.40;57.50;;;;;;5058794;28;20209;-81
2021/04/28 11:15:50;;;;;;;9.07;7.93;;;22.60;55.70;;;;;;5059137;28;20221;-82
2021/04/28 11:18:27;;;;;;;7.83;7.20;;;22.70;56.10;;;;;;5050387;28;20301;-80
2021/04/28 11:21:16;;;;;;;10.43;7.03;;;22.60;57.40;;;;;;5058960;28;20316;-81
2021/04/28 11:24:05;;;;;;;5.67;5.17;;;22.50;57.10;;;;;;5059036;28;20307;-81
2021/04/28 11:26:36;;;;;;;6.80;6.13;;;22.50;56.00;;;;;;5058421;28;20301;-81
2021/04/28 11:29:06;;;;;;;6.87;6.37;;;22.30;56.60;;;;;;5042568;28;20218;-81
2021/04/28 11:31:42;;;;;;;6.67;6.07;;;22.20;56.10;;;;;;5058000;28;20241;-81
2021/04/28 11:34:18;;;;;;;7.83;7.03;;;22.10;56.30;;;;;;5050298;28;20281;-81
2021/04/28 11:37:06;;;;;;;7.23;5.50;;;22.10;56.20;;;;;;5054481;28;20229;-82
2021/04/28 11:39:41;;;;;;;6.50;5.97;;;22.10;55.00;;;;;;5056715;28;20211;-82
2021/04/28 11:42:16;;;;;;;6.50;5.90;;;22.10;54.70;;;;;;5055365;28;20214;-81
2021/04/28 11:44:49;;;;;;;6.83;6.23;;;22.00;54.50;;;;;;5058507;28;20307;-81
2021/04/28 11:47:18;;;;;;;7.73;7.00;;;21.80;55.20;;;;;;5057217;28;20221;-82
2021/04/28 11:49:47;;;;;;;8.27;7.03;;;21.70;54.10;;;;;;5058950;28;20249;-81
2021/04/28 11:52:16;;;;;;;8.57;7.77;;;21.50;54.50;;;;;;5058801;28;20249;-82
2021/04/28 11:54:44;;;;;;;8.63;7.23;;;21.30;55.80;;;;;;5058691;28;20214;-80
2021/04/28 11:57:12;;;;;;;7.23;5.80;;;21.20;56.80;;;;;;5057776;28;20272;-81
2021/04/28 11:59:39;;;;;;;4.80;4.40;;;21.20;56.50;;;;;;5057435;28;20214;-82
2021/04/28 12:02:11;;;;;;;6.10;5.50;;;21.10;54.70;;;;;;5058001;28;20214;-82
2021/04/28 12:04:45;;;;;;;4.17;3.57;;;20.90;55.20;;;;;;5057352;28;20224;-81
2021/04/28 12:07:17;;;;;;;4.50;4.10;;;20.80;55.00;;;;;;5058342;28;20213;-82
2021/04/28 12:09:49;;;;;;;6.43;5.27;;;20.90;55.00;;;;;;5047692;28;20298;-82
2021/04/28 12:12:18;;;;;;;7.27;6.20;;;21.20;56.30;;;;;;5057754;28;20241;-82
2021/04/28 12:14:49;;;;;;;5.73;4.60;;;21.50;55.60;;;;;;5059082;28;20217;-81
2021/04/28 12:17:26;;;;;;;4.20;3.90;;;21.50;55.50;;;;;;5058114;28;20214;-80
2021/04/28 12:19:55;;;;;;;9.97;4.30;;;21.50;55.70;;;;;;5055148;28;20218;-81
2021/04/28 12:22:27;;;;;;;6.60;4.50;;;21.70;54.70;;;;;;5057393;28;20565;-81
2021/04/28 12:24:58;;;;;;;5.07;4.50;;;22.00;54.20;;;;;;5057822;28;20228;-80
2021/04/28 12:27:28;;;;;;;7.97;4.80;;;22.20;54.10;;;;;;5058792;28;20202;-80
2021/04/28 12:30:00;;;;;;;4.63;4.23;;;22.30;54.30;;;;;;5057340;28;20214;-81
2021/04/28 12:32:31;;;;;;;4.73;4.33;;;22.50;53.60;;;;;;5048814;28;20231;-81
2021/04/28 12:35:20;;;;;;;5.23;4.73;;;22.70;53.80;;;;;;5053929;28;20266;-80
2021/04/28 12:38:16;;;;;;;6.27;5.67;;;22.90;53.10;;;;;;5043702;28;20225;-82
2021/04/28 12:40:54;;;;;;;6.87;5.57;;;23.00;51.30;;;;;;5043562;28;20218;-81
2021/04/28 12:43:26;;;;;;;6.90;5.80;;;22.70;52.60;;;;;;5056371;28;20217;-80
2021/04/28 12:46:11;;;;;;;7.93;7.03;;;22.50;53.60;;;;;;5056201;28;20209;-79
2021/04/28 12:48:52;;;;;;;8.30;6.43;;;22.50;54.00;;;;;;5056475;28;20214;-82
2021/04/28 12:51:19;;;;;;;9.03;7.77;;;22.50;53.60;;;;;;5055771;28;20345;-82
2021/04/28 12:53:46;;;;;;;7.13;6.43;;;22.60;55.10;;;;;;5049957;28;20210;-81